createdAt,value
2023-08-11T00:01:08.045Z,0
2023-08-11T00:02:17.218Z,0
2023-08-11T00:03:26.388Z,0
2023-08-11T00:04:35.563Z,0
2023-08-11T00:05:44.739Z,0
2023-08-11T00:06:52.917Z,0
2023-08-11T00:08:02.095Z,0
2023-08-11T00:09:11.271Z,0
2023-08-11T00:10:20.437Z,0
2023-08-11T00:11:29.634Z,0
2023-08-11T00:12:38.803Z,0
2023-08-11T00:13:47.966Z,0
2023-08-11T00:14:57.135Z,0
2023-08-11T00:16:06.321Z,0
2023-08-11T00:17:15.483Z,0
2023-08-11T00:18:24.649Z,0
2023-08-11T00:19:33.829Z,0
2023-08-11T00:20:42.988Z,0
2023-08-11T00:21:51.184Z,0
2023-08-11T00:23:00.358Z,0
2023-08-11T00:24:09.523Z,0
2023-08-11T00:25:18.699Z,0
2023-08-11T00:27:37.054Z,0
2023-08-11T00:28:46.229Z,0
2023-08-11T00:31:04.564Z,0
2023-08-11T00:32:13.737Z,0
2023-08-11T00:33:22.914Z,0
2023-08-11T00:34:32.099Z,0
2023-08-11T00:35:41.318Z,0
2023-08-11T00:36:49.441Z,0
2023-08-11T00:37:58.610Z,0
2023-08-11T00:39:07.797Z,0
2023-08-11T00:40:16.961Z,0
2023-08-11T00:41:26.132Z,0
2023-08-11T00:42:35.308Z,0
2023-08-11T00:43:44.483Z,0
2023-08-11T00:44:53.645Z,0
2023-08-11T00:46:02.825Z,0
2023-08-11T00:47:11.999Z,0
2023-08-11T00:48:21.167Z,0
2023-08-11T00:49:30.344Z,0
2023-08-11T00:50:39.511Z,0
2023-08-11T00:51:47.695Z,0
2023-08-11T00:52:56.866Z,0
2023-08-11T00:54:06.048Z,0
2023-08-11T00:55:15.213Z,0
2023-08-11T00:56:24.421Z,0
2023-08-11T00:57:33.570Z,0
2023-08-11T00:58:42.742Z,0
2023-08-11T00:59:51.908Z,0
2023-08-11T01:01:01.092Z,0
2023-08-11T01:02:10.254Z,0
2023-08-11T01:03:19.531Z,0
2023-08-11T01:04:27.628Z,0
2023-08-11T01:05:36.794Z,0
2023-08-11T01:06:44.991Z,0
2023-08-11T01:07:54.169Z,0
2023-08-11T01:10:12.514Z,0
2023-08-11T01:11:21.673Z,0
2023-08-11T01:12:30.859Z,0
2023-08-11T01:13:40.014Z,0
2023-08-11T01:14:49.196Z,0
2023-08-11T01:15:58.383Z,0
2023-08-11T01:17:07.549Z,0
2023-08-11T01:18:16.721Z,0
2023-08-11T01:19:25.900Z,0
2023-08-11T01:20:35.081Z,0
2023-08-11T01:21:43.252Z,0
2023-08-11T01:22:52.416Z,0
2023-08-11T01:24:01.594Z,0
2023-08-11T01:25:10.771Z,0
2023-08-11T01:26:19.931Z,0
2023-08-11T01:27:29.108Z,0
2023-08-11T01:28:38.285Z,0
2023-08-11T01:29:47.472Z,0
2023-08-11T01:30:56.635Z,0
2023-08-11T01:32:05.796Z,0
2023-08-11T01:33:15.058Z,0
2023-08-11T01:34:24.151Z,0
2023-08-11T01:35:32.343Z,0
2023-08-11T01:36:41.509Z,0
2023-08-11T01:37:50.694Z,0
2023-08-11T01:38:58.885Z,0
2023-08-11T01:40:07.084Z,0
2023-08-11T01:41:15.264Z,0
2023-08-11T01:42:24.437Z,0
2023-08-11T01:43:33.608Z,0
2023-08-11T01:44:42.783Z,0
2023-08-11T01:45:51.950Z,0
2023-08-11T01:47:01.121Z,0
2023-08-11T01:48:10.297Z,0
2023-08-11T01:49:19.476Z,0
2023-08-11T01:50:28.641Z,0
2023-08-11T01:51:37.824Z,0
2023-08-11T01:52:46.987Z,0
2023-08-11T01:53:56.166Z,0
2023-08-11T01:55:05.337Z,0
2023-08-11T01:56:13.529Z,0
2023-08-11T01:57:22.698Z,0
2023-08-11T01:58:31.866Z,0
2023-08-11T01:59:41.045Z,0
2023-08-11T02:00:50.220Z,0
2023-08-11T02:01:59.394Z,0
2023-08-11T02:03:07.587Z,0
2023-08-11T02:04:15.768Z,0
2023-08-11T02:05:24.956Z,0
2023-08-11T02:06:34.118Z,0
2023-08-11T02:07:43.297Z,0
2023-08-11T02:08:52.462Z,0
2023-08-11T02:10:01.636Z,0
2023-08-11T02:11:10.808Z,0
2023-08-11T02:12:20.063Z,0
2023-08-11T02:13:29.158Z,0
2023-08-11T02:14:38.330Z,0
2023-08-11T02:15:47.498Z,0
2023-08-11T02:16:56.657Z,0
2023-08-11T02:18:05.836Z,0
2023-08-11T02:19:14.020Z,0
2023-08-11T02:20:23.196Z,0
2023-08-11T02:21:32.406Z,0
2023-08-11T02:22:41.651Z,0
2023-08-11T02:23:50.709Z,0
2023-08-11T02:24:59.888Z,0
2023-08-11T02:26:08.093Z,0
2023-08-11T02:27:16.284Z,0
2023-08-11T02:28:25.452Z,0
2023-08-11T02:29:34.611Z,0
2023-08-11T02:30:43.786Z,0
2023-08-11T02:31:52.973Z,0
2023-08-11T02:33:02.139Z,0
2023-08-11T02:34:11.306Z,0
2023-08-11T02:35:20.489Z,0
2023-08-11T02:36:29.650Z,0
2023-08-11T02:37:38.818Z,0
2023-08-11T02:38:48.001Z,0
2023-08-11T02:39:57.172Z,0
2023-08-11T02:41:06.346Z,0
2023-08-11T02:42:14.535Z,0
2023-08-11T02:43:23.690Z,0
2023-08-11T02:44:32.870Z,0
2023-08-11T02:45:42.037Z,0
2023-08-11T02:46:51.221Z,0
2023-08-11T02:48:00.405Z,0
2023-08-11T02:49:09.566Z,0
2023-08-11T02:50:18.742Z,0
2023-08-11T02:51:28.029Z,0
2023-08-11T02:52:37.076Z,0
2023-08-11T02:53:46.256Z,0
2023-08-11T02:54:55.425Z,0
2023-08-11T02:56:04.599Z,0
2023-08-11T02:57:12.777Z,0
2023-08-11T02:59:31.131Z,0
2023-08-11T03:00:40.308Z,0
2023-08-11T03:01:48.532Z,0
2023-08-11T03:02:56.684Z,0
2023-08-11T03:04:04.922Z,0
2023-08-11T03:05:14.055Z,0
2023-08-11T03:06:23.234Z,0
2023-08-11T03:07:32.406Z,0
2023-08-11T03:08:41.576Z,0
2023-08-11T03:09:50.744Z,0
2023-08-11T03:10:59.923Z,0
2023-08-11T03:12:09.085Z,0
2023-08-11T03:13:18.300Z,0
2023-08-11T03:14:27.444Z,0
2023-08-11T03:15:36.609Z,0
2023-08-11T03:16:45.792Z,0
2023-08-11T03:17:54.967Z,3
2023-08-11T03:19:03.145Z,3
2023-08-11T03:20:12.305Z,3
2023-08-11T03:21:21.487Z,3
2023-08-11T03:22:30.662Z,3
2023-08-11T03:23:39.832Z,3
2023-08-11T03:24:49.004Z,3
2023-08-11T03:25:58.175Z,3
2023-08-11T03:27:07.346Z,3
2023-08-11T03:28:16.516Z,4
2023-08-11T03:29:25.691Z,0
2023-08-11T03:30:34.875Z,4
2023-08-11T03:31:44.114Z,4
2023-08-11T03:32:53.207Z,4
2023-08-11T03:34:01.395Z,1
2023-08-11T03:35:10.580Z,1
2023-08-11T03:36:19.746Z,9
2023-08-11T03:37:28.931Z,5
2023-08-11T03:38:38.091Z,3
2023-08-11T03:39:46.298Z,3
2023-08-11T03:40:54.479Z,6
2023-08-11T03:42:03.638Z,6
2023-08-11T03:43:11.835Z,19
2023-08-11T03:45:30.192Z,16
2023-08-11T03:46:39.349Z,9
2023-08-11T03:47:48.544Z,8
2023-08-11T03:48:57.709Z,12
2023-08-11T03:50:06.879Z,30
2023-08-11T03:51:16.140Z,31
2023-08-11T03:52:25.224Z,40
2023-08-11T03:53:34.390Z,46
2023-08-11T03:54:43.571Z,55
2023-08-11T03:55:52.734Z,52
2023-08-11T03:57:01.906Z,61
2023-08-11T03:58:10.103Z,84
2023-08-11T03:59:19.278Z,94
2023-08-11T04:01:37.629Z,118
2023-08-11T04:02:45.811Z,136
2023-08-11T04:03:54.003Z,163
2023-08-11T04:05:03.176Z,178
2023-08-11T04:06:12.348Z,188
2023-08-11T04:07:21.520Z,216
2023-08-11T04:08:30.690Z,235
2023-08-11T04:09:39.868Z,272
2023-08-11T04:10:49.033Z,292
2023-08-11T04:11:58.193Z,311
2023-08-11T04:13:07.377Z,335
2023-08-11T04:14:15.580Z,376
2023-08-11T04:15:23.830Z,401
2023-08-11T04:16:32.944Z,421
2023-08-11T04:17:42.117Z,484
2023-08-11T04:18:51.313Z,509
2023-08-11T04:20:00.461Z,542
2023-08-11T04:21:09.628Z,574
2023-08-11T04:22:18.804Z,616
2023-08-11T04:23:27.974Z,649
2023-08-11T04:25:46.326Z,721
2023-08-11T04:26:55.495Z,755
2023-08-11T04:28:04.648Z,810
2023-08-11T04:29:13.838Z,844
2023-08-11T04:30:22.024Z,874
2023-08-11T04:31:31.194Z,916
2023-08-11T04:32:40.392Z,959
2023-08-11T04:33:49.539Z,984
2023-08-11T04:34:58.714Z,1011
2023-08-11T04:36:07.884Z,1044
2023-08-11T04:37:17.043Z,1067
2023-08-11T04:38:26.230Z,1103
2023-08-11T04:39:35.604Z,1116
2023-08-11T04:40:44.628Z,1168
2023-08-11T04:41:53.773Z,1220
2023-08-11T04:43:02.924Z,1239
2023-08-11T04:44:12.097Z,1281
2023-08-11T04:45:20.300Z,1324
2023-08-11T04:46:29.449Z,1363
2023-08-11T04:47:38.629Z,1385
2023-08-11T04:48:47.798Z,1447
2023-08-11T04:49:56.980Z,1526
2023-08-11T04:51:06.139Z,1522
2023-08-11T04:52:15.314Z,1545
2023-08-11T04:53:24.496Z,1509
2023-08-11T04:54:33.729Z,1796
2023-08-11T04:55:42.852Z,1630
2023-08-11T04:58:01.198Z,1675
2023-08-11T04:59:10.358Z,1697
2023-08-11T05:00:18.545Z,1731
2023-08-11T05:01:27.719Z,1724
2023-08-11T05:02:36.952Z,1724
2023-08-11T05:03:46.056Z,1715
2023-08-11T05:04:55.245Z,1796
2023-08-11T05:06:04.412Z,1853
2023-08-11T05:07:13.639Z,1872
2023-08-11T05:08:22.758Z,1884
2023-08-11T05:09:31.922Z,1926
2023-08-11T05:10:41.105Z,1932
2023-08-11T05:11:50.258Z,1954
2023-08-11T05:14:08.608Z,2110
2023-08-11T05:15:16.844Z,2239
2023-08-11T05:16:25.968Z,2156
2023-08-11T05:18:44.328Z,2207
2023-08-11T05:19:52.534Z,2339
2023-08-11T05:21:00.750Z,2338
2023-08-11T05:22:09.874Z,2347
2023-08-11T05:23:19.047Z,2333
2023-08-11T05:24:28.228Z,2387
2023-08-11T05:25:37.398Z,2442
2023-08-11T05:26:45.597Z,2450
2023-08-11T05:27:54.756Z,2450
2023-08-11T05:29:03.941Z,2459
2023-08-11T05:30:13.096Z,2528
2023-08-11T05:31:21.311Z,2586
2023-08-11T05:32:29.492Z,2630
2023-08-11T05:33:38.659Z,2658
2023-08-11T05:34:47.832Z,2727
2023-08-11T05:35:57.017Z,2883
2023-08-11T05:37:06.163Z,2986
2023-08-11T05:38:15.364Z,3051
2023-08-11T05:39:24.525Z,2914
2023-08-11T05:40:33.699Z,2900
2023-08-11T05:41:42.865Z,2974
2023-08-11T05:42:52.040Z,3073
2023-08-11T05:44:01.219Z,3085
2023-08-11T05:45:10.385Z,3176
2023-08-11T05:46:19.563Z,3242
2023-08-11T05:47:27.773Z,3258
2023-08-11T05:48:36.933Z,3482
2023-08-11T05:49:46.088Z,3656
2023-08-11T05:50:55.256Z,3254
2023-08-11T05:52:04.433Z,3586
2023-08-11T05:53:13.613Z,3627
2023-08-11T05:54:21.816Z,3679
2023-08-11T05:55:29.991Z,3693
2023-08-11T05:56:39.162Z,3735
2023-08-11T05:57:48.338Z,3732
2023-08-11T05:58:57.514Z,3833
2023-08-11T06:00:06.797Z,3938
2023-08-11T06:01:15.937Z,3917
2023-08-11T06:02:25.030Z,4027
2023-08-11T06:03:34.200Z,4051
2023-08-11T06:04:43.484Z,4091
2023-08-11T06:05:52.549Z,4065
2023-08-11T06:07:01.702Z,4116
2023-08-11T06:08:10.889Z,4121
2023-08-11T06:09:20.058Z,4152
2023-08-11T06:10:28.244Z,4224
2023-08-11T06:11:37.581Z,4197
2023-08-11T06:12:46.588Z,4289
2023-08-11T06:13:55.790Z,4303
2023-08-11T06:15:04.948Z,4301
2023-08-11T06:16:14.111Z,4414
2023-08-11T06:17:22.311Z,4390
2023-08-11T06:18:30.493Z,4438
2023-08-11T06:19:39.677Z,4480
2023-08-11T06:20:48.895Z,4511
2023-08-11T06:21:58.194Z,4561
2023-08-11T06:23:07.179Z,4586
2023-08-11T06:24:16.389Z,4643
2023-08-11T06:25:25.538Z,4640
2023-08-11T06:26:34.713Z,4585
2023-08-11T06:27:43.864Z,4718
2023-08-11T06:28:53.067Z,4705
2023-08-11T06:30:02.225Z,4760
2023-08-11T06:31:11.421Z,4769
2023-08-11T06:32:20.567Z,4849
2023-08-11T06:33:28.768Z,4838
2023-08-11T06:34:37.924Z,4832
2023-08-11T06:35:47.197Z,4930
2023-08-11T06:36:56.275Z,4928
2023-08-11T06:38:05.437Z,5014
2023-08-11T06:39:14.610Z,5012
2023-08-11T06:40:23.782Z,5011
2023-08-11T06:41:32.968Z,5021
2023-08-11T06:42:42.135Z,5090
2023-08-11T06:43:51.328Z,5091
2023-08-11T06:45:00.474Z,5141
2023-08-11T06:46:09.635Z,5230
2023-08-11T06:47:18.831Z,5127
2023-08-11T06:48:27.999Z,5177
2023-08-11T06:49:36.240Z,5218
2023-08-11T06:50:45.398Z,5279
2023-08-11T06:51:54.540Z,5230
2023-08-11T06:53:03.717Z,5307
2023-08-11T06:54:12.868Z,5283
2023-08-11T06:55:22.061Z,5325
2023-08-11T06:56:31.223Z,5333
2023-08-11T06:57:40.426Z,5403
2023-08-11T06:58:49.566Z,5376
2023-08-11T06:59:58.737Z,5468
2023-08-11T07:01:07.955Z,5445
2023-08-11T07:02:17.083Z,5466
2023-08-11T07:03:26.254Z,5511
2023-08-11T07:04:34.481Z,5505
2023-08-11T07:05:43.615Z,5528
2023-08-11T07:06:52.775Z,5595
2023-08-11T07:08:01.959Z,5669
2023-08-11T07:09:11.142Z,5558
2023-08-11T07:10:20.302Z,5680
2023-08-11T07:11:29.474Z,5704
2023-08-11T07:12:38.665Z,5702
2023-08-11T07:13:47.822Z,5745
2023-08-11T07:14:56.985Z,5748
2023-08-11T07:16:06.160Z,5726
2023-08-11T07:17:15.327Z,5776
2023-08-11T07:18:24.495Z,5812
2023-08-11T07:19:32.814Z,5860
2023-08-11T07:20:40.889Z,5804
2023-08-11T07:21:50.049Z,6157
2023-08-11T07:22:59.226Z,5725
2023-08-11T07:24:08.413Z,5833
2023-08-11T07:25:17.583Z,5848
2023-08-11T07:26:26.750Z,5882
2023-08-11T07:27:35.960Z,5824
2023-08-11T07:28:45.104Z,5893
2023-08-11T07:29:54.260Z,5857
2023-08-11T07:31:03.432Z,5886
2023-08-11T07:32:12.615Z,5928
2023-08-11T07:33:21.793Z,5929
2023-08-11T07:34:30.952Z,5921
2023-08-11T07:35:39.145Z,5919
2023-08-11T07:36:48.317Z,5913
2023-08-11T07:37:57.483Z,5937
2023-08-11T07:39:06.659Z,5953
2023-08-11T07:40:15.871Z,6024
2023-08-11T07:41:25.007Z,5992
2023-08-11T07:42:34.211Z,6063
2023-08-11T07:43:43.346Z,6013
2023-08-11T07:44:52.523Z,5990
2023-08-11T07:46:01.722Z,5986
2023-08-11T07:47:10.865Z,6042
2023-08-11T07:48:20.045Z,6066
2023-08-11T07:49:29.257Z,6079
2023-08-11T07:50:38.384Z,6155
2023-08-11T07:51:46.610Z,6151
2023-08-11T07:52:55.756Z,6243
2023-08-11T07:54:04.907Z,6317
2023-08-11T07:55:14.087Z,6288
2023-08-11T07:56:23.255Z,6340
2023-08-11T07:57:32.431Z,6436
2023-08-11T07:58:41.615Z,6446
2023-08-11T07:59:50.768Z,6443
2023-08-11T08:00:59.948Z,6468
2023-08-11T08:02:09.111Z,6483
2023-08-11T08:03:18.298Z,6529
2023-08-11T08:04:27.463Z,6489
2023-08-11T08:05:36.634Z,6804
2023-08-11T08:06:44.831Z,6627
2023-08-11T08:07:54.014Z,6467
2023-08-11T08:09:03.170Z,6728
2023-08-11T08:10:12.346Z,6788
2023-08-11T08:11:21.514Z,6724
2023-08-11T08:12:30.692Z,6786
2023-08-11T08:13:39.870Z,6810
2023-08-11T08:14:49.042Z,6867
2023-08-11T08:15:58.293Z,6864
2023-08-11T08:17:07.371Z,6928
2023-08-11T08:18:16.552Z,6853
2023-08-11T08:19:25.714Z,6882
2023-08-11T08:20:34.903Z,6911
2023-08-11T08:21:43.091Z,6939
2023-08-11T08:22:52.266Z,6936
2023-08-11T08:24:01.439Z,7006
2023-08-11T08:25:10.612Z,7041
2023-08-11T08:26:19.776Z,7014
2023-08-11T08:27:28.956Z,7054
2023-08-11T08:28:38.122Z,7084
2023-08-11T08:29:47.311Z,7102
2023-08-11T08:30:56.474Z,7133
2023-08-11T08:32:05.659Z,7110
2023-08-11T08:33:14.832Z,7173
2023-08-11T08:34:23.988Z,7133
2023-08-11T08:35:33.159Z,7175
2023-08-11T08:38:59.693Z,7250
2023-08-11T08:40:08.875Z,7250
2023-08-11T08:41:18.038Z,7251
2023-08-11T08:42:27.213Z,7266
2023-08-11T08:43:36.386Z,7283
2023-08-11T08:44:45.554Z,7286
2023-08-11T08:45:54.734Z,7288
2023-08-11T08:47:03.915Z,7340
2023-08-11T08:48:13.060Z,7310
2023-08-11T08:49:22.252Z,7316
2023-08-11T08:50:31.420Z,7377
2023-08-11T08:51:39.603Z,7366
2023-08-11T08:52:48.777Z,7363
2023-08-11T08:53:57.952Z,7405
2023-08-11T08:55:07.120Z,7449
2023-08-11T08:56:16.313Z,7430
2023-08-11T08:57:25.468Z,7444
2023-08-11T08:58:34.633Z,7448
2023-08-11T08:59:43.830Z,7474
2023-08-11T09:00:52.982Z,7449
2023-08-11T09:02:02.161Z,7513
2023-08-11T09:03:11.319Z,7522
2023-08-11T09:04:20.515Z,7622
2023-08-11T09:05:29.670Z,7613
2023-08-11T09:06:37.880Z,7613
2023-08-11T09:07:46.084Z,7604
2023-08-11T09:08:54.285Z,7702
2023-08-11T09:10:03.439Z,7652
2023-08-11T09:11:11.612Z,7659
2023-08-11T09:12:20.794Z,7725
2023-08-11T09:13:29.973Z,7667
2023-08-11T09:14:39.249Z,7703
2023-08-11T09:15:48.312Z,7690
2023-08-11T09:16:57.492Z,7788
2023-08-11T09:18:05.692Z,7730
2023-08-11T09:19:14.852Z,7777
2023-08-11T09:20:24.031Z,7791
2023-08-11T09:21:33.198Z,7797
2023-08-11T09:22:42.430Z,7823
2023-08-11T09:23:51.551Z,7853
2023-08-11T09:25:00.814Z,7836
2023-08-11T09:26:09.916Z,7917
2023-08-11T09:27:19.073Z,7922
2023-08-11T09:28:28.268Z,7926
2023-08-11T09:29:37.428Z,7970
2023-08-11T09:30:46.590Z,7946
2023-08-11T09:31:55.759Z,8039
2023-08-11T09:33:03.977Z,7994
2023-08-11T09:34:13.126Z,8023
2023-08-11T09:35:22.295Z,8044
2023-08-11T09:36:31.472Z,8033
2023-08-11T09:37:40.662Z,7988
2023-08-11T09:38:49.831Z,8100
2023-08-11T09:39:58.991Z,8142
2023-08-11T09:41:08.155Z,8166
2023-08-11T09:42:17.368Z,8115
2023-08-11T09:43:26.502Z,8136
2023-08-11T09:44:35.673Z,8142
2023-08-11T09:45:44.876Z,8165
2023-08-11T09:46:54.067Z,8201
2023-08-11T09:48:02.214Z,8246
2023-08-11T09:49:11.408Z,8246
2023-08-11T09:50:20.548Z,8296
2023-08-11T09:51:29.725Z,8301
2023-08-11T09:52:38.899Z,8297
2023-08-11T09:53:48.074Z,8283
2023-08-11T09:54:57.261Z,8377
2023-08-11T09:56:06.422Z,8352
2023-08-11T09:57:15.596Z,8381
2023-08-11T09:58:24.763Z,8374
2023-08-11T09:59:34.014Z,8405
2023-08-11T10:00:43.142Z,8491
2023-08-11T10:01:52.341Z,8446
2023-08-11T10:03:01.628Z,8420
2023-08-11T10:04:09.649Z,8467
2023-08-11T10:05:17.911Z,8468
2023-08-11T10:06:27.058Z,8531
2023-08-11T10:07:36.181Z,8520
2023-08-11T10:08:45.356Z,8517
2023-08-11T10:09:54.723Z,8599
2023-08-11T10:11:03.699Z,8593
2023-08-11T10:12:13.014Z,8578
2023-08-11T10:13:22.093Z,8664
2023-08-11T10:14:31.221Z,8648
2023-08-11T10:15:40.458Z,8641
2023-08-11T10:16:49.648Z,8647
2023-08-11T10:17:58.841Z,8711
2023-08-11T10:19:07.930Z,8759
2023-08-11T10:20:16.085Z,8700
2023-08-11T10:21:25.305Z,8771
2023-08-11T10:22:34.436Z,8797
2023-08-11T10:23:43.610Z,8787
2023-08-11T10:24:52.773Z,8803
2023-08-11T10:26:01.949Z,8901
2023-08-11T10:27:10.197Z,8952
2023-08-11T10:28:19.427Z,8939
2023-08-11T10:29:27.524Z,8989
2023-08-11T10:30:35.707Z,8966
2023-08-11T10:31:44.877Z,8942
2023-08-11T10:32:54.087Z,8955
2023-08-11T10:34:03.213Z,8956
2023-08-11T10:36:21.566Z,9098
2023-08-11T10:37:30.757Z,9091
2023-08-11T10:38:39.992Z,9118
2023-08-11T10:40:58.271Z,9239
2023-08-11T10:42:07.419Z,9247
2023-08-11T10:43:15.622Z,9252
2023-08-11T10:44:23.812Z,9288
2023-08-11T10:45:32.988Z,9312
2023-08-11T10:46:42.163Z,9293
2023-08-11T10:47:51.369Z,9346
2023-08-11T10:49:00.589Z,9321
2023-08-11T10:50:09.677Z,9407
2023-08-11T10:51:18.843Z,9434
2023-08-11T10:53:37.180Z,9460
2023-08-11T10:54:46.352Z,9727
2023-08-11T10:55:55.535Z,9320
2023-08-11T10:57:04.710Z,9483
2023-08-11T10:59:23.045Z,9542
2023-08-11T11:00:31.279Z,9645
2023-08-11T11:01:39.421Z,9678
2023-08-11T11:02:48.604Z,9593
2023-08-11T11:03:57.769Z,9887
2023-08-11T11:05:06.958Z,9776
2023-08-11T11:06:16.120Z,9829
2023-08-11T11:07:25.297Z,9714
2023-08-11T11:08:34.465Z,9766
2023-08-11T11:09:43.717Z,9632
2023-08-11T11:10:52.837Z,9728
2023-08-11T11:12:01.103Z,9747
2023-08-11T11:13:09.180Z,9742
2023-08-11T11:14:18.369Z,9785
2023-08-11T11:15:27.524Z,9711
2023-08-11T11:16:36.704Z,9730
2023-08-11T11:17:45.871Z,10080
2023-08-11T11:18:55.054Z,11448
2023-08-11T11:20:04.221Z,10455
2023-08-11T11:21:13.389Z,9984
2023-08-11T11:22:22.563Z,9890
2023-08-11T11:23:30.816Z,9700
2023-08-11T11:24:38.937Z,10328
2023-08-11T11:25:48.120Z,11248
2023-08-11T11:26:57.293Z,10509
2023-08-11T11:28:06.459Z,10156
2023-08-11T11:29:15.699Z,10474
2023-08-11T11:30:24.826Z,10542
2023-08-11T11:31:33.982Z,10167
2023-08-11T11:32:43.146Z,10027
2023-08-11T11:33:52.320Z,10154
2023-08-11T11:35:01.492Z,10947
2023-08-11T11:36:10.693Z,10155
2023-08-11T11:37:19.850Z,10231
2023-08-11T11:38:29.014Z,10236
2023-08-11T11:39:37.235Z,10118
2023-08-11T11:40:46.377Z,10219
2023-08-11T11:41:55.547Z,10200
2023-08-11T11:43:04.724Z,10233
2023-08-11T11:45:23.052Z,10274
2023-08-11T11:46:32.233Z,10349
2023-08-11T11:47:41.416Z,10393
2023-08-11T11:48:50.644Z,10371
2023-08-11T11:51:08.940Z,10048
2023-08-11T11:52:18.097Z,10400
2023-08-11T11:53:27.288Z,10392
2023-08-11T11:54:35.464Z,10389
2023-08-11T11:55:44.642Z,10564
2023-08-11T11:56:53.798Z,10389
2023-08-11T11:58:02.980Z,10414
2023-08-11T11:59:12.231Z,10549
2023-08-11T12:00:21.324Z,10658
2023-08-11T12:01:30.504Z,10563
2023-08-11T12:02:39.675Z,10575
2023-08-11T12:03:48.840Z,10644
2023-08-11T12:04:58.003Z,10852
2023-08-11T12:06:07.175Z,11735
2023-08-11T12:07:16.358Z,9329
2023-08-11T12:08:25.535Z,10811
2023-08-11T12:09:33.837Z,11022
2023-08-11T12:10:42.885Z,11151
2023-08-11T12:11:52.070Z,11224
2023-08-11T12:13:01.244Z,11310
2023-08-11T12:14:09.496Z,11472
2023-08-11T12:15:17.604Z,11520
2023-08-11T12:16:26.786Z,11485
2023-08-11T12:17:35.999Z,11526
2023-08-11T12:18:45.134Z,11641
2023-08-11T12:19:54.305Z,11606
2023-08-11T12:21:03.486Z,11688
2023-08-11T12:22:12.649Z,11094
2023-08-11T12:23:21.829Z,11772
2023-08-11T12:24:30.988Z,11510
2023-08-11T12:25:40.173Z,11887
2023-08-11T12:27:58.503Z,12013
2023-08-11T12:29:07.739Z,13685
2023-08-11T12:30:15.896Z,11130
2023-08-11T12:31:25.060Z,11245
2023-08-11T12:32:34.287Z,12738
2023-08-11T12:33:43.388Z,13336
2023-08-11T12:34:52.575Z,12933
2023-08-11T12:36:01.744Z,12879
2023-08-11T12:37:10.954Z,12764
2023-08-11T12:38:19.160Z,12741
2023-08-11T12:39:27.313Z,12317
2023-08-11T12:40:36.470Z,12070
2023-08-11T12:42:53.839Z,15657
2023-08-11T12:44:03.002Z,13058
2023-08-11T12:45:12.224Z,15814
2023-08-11T12:46:21.347Z,18156
2023-08-11T12:47:30.516Z,14276
2023-08-11T12:48:39.750Z,12480
2023-08-11T12:49:48.859Z,15991
2023-08-11T12:50:58.173Z,17473
2023-08-11T12:52:07.205Z,20782
2023-08-11T12:53:16.383Z,32859
2023-08-11T12:54:25.554Z,20282
2023-08-11T12:55:34.728Z,11829
2023-08-11T12:56:43.897Z,49305
2023-08-11T12:57:52.078Z,43531
2023-08-11T12:59:01.261Z,35165
2023-08-11T13:00:10.439Z,44081
2023-08-11T13:01:19.610Z,35156
2023-08-11T13:02:28.798Z,30813
2023-08-11T13:03:36.972Z,28326
2023-08-11T13:04:45.161Z,25725
2023-08-11T13:05:54.356Z,30223
2023-08-11T13:07:03.504Z,30394
2023-08-11T13:08:12.792Z,28752
2023-08-11T13:09:21.850Z,27076
2023-08-11T13:10:30.028Z,29870
2023-08-11T13:11:39.219Z,29014
2023-08-11T13:12:48.394Z,29005
2023-08-11T13:13:57.566Z,28430
2023-08-11T13:15:06.732Z,27232
2023-08-11T13:16:15.894Z,23118
2023-08-11T13:17:25.071Z,20126
2023-08-11T13:19:43.428Z,22552
2023-08-11T13:20:52.715Z,27096
2023-08-11T13:22:01.770Z,23595
2023-08-11T13:24:20.121Z,26539
2023-08-11T13:25:28.326Z,22395
2023-08-11T13:26:36.497Z,20228
2023-08-11T13:27:45.666Z,31578
2023-08-11T13:28:54.843Z,29165
2023-08-11T13:30:04.061Z,22175
2023-08-11T13:31:13.181Z,23792
2023-08-11T13:32:22.368Z,27927
2023-08-11T13:33:31.544Z,29420
2023-08-11T13:34:40.768Z,22925
2023-08-11T13:35:49.873Z,20174
2023-08-11T13:36:58.081Z,18908
2023-08-11T13:38:07.244Z,18627
2023-08-11T13:39:15.550Z,18549
2023-08-11T13:40:24.619Z,18679
2023-08-11T13:41:33.921Z,18478
2023-08-11T13:42:42.953Z,18545
2023-08-11T13:43:52.138Z,18574
2023-08-11T13:46:10.483Z,9372
2023-08-11T13:47:19.650Z,22898
2023-08-11T13:48:28.819Z,58574
2023-08-11T13:49:37.996Z,47475
2023-08-11T13:50:47.161Z,35991
2023-08-11T13:51:56.327Z,41309
2023-08-11T13:53:05.508Z,52767
2023-08-11T13:54:13.730Z,15968
2023-08-11T13:55:22.882Z,59865
2023-08-11T13:56:32.039Z,55889
2023-08-11T13:57:41.227Z,57116
2023-08-11T13:58:50.437Z,54789
2023-08-11T13:59:59.570Z,46950
2023-08-11T14:01:08.731Z,55519
2023-08-11T14:02:17.908Z,64945
2023-08-11T14:03:27.091Z,39688
2023-08-11T14:04:36.245Z,14120
2023-08-11T14:05:45.431Z,59632
2023-08-11T14:06:54.602Z,59569
2023-08-11T14:08:03.774Z,50493
2023-08-11T14:09:11.970Z,56801
2023-08-11T14:10:21.128Z,3282
2023-08-11T14:11:30.331Z,47156
2023-08-11T14:12:39.515Z,58750
2023-08-11T14:13:48.659Z,65233
2023-08-11T14:14:57.819Z,48060
2023-08-11T14:17:16.217Z,30758
2023-08-11T14:18:25.339Z,56604
2023-08-11T14:19:34.513Z,18896
2023-08-11T14:20:43.772Z,18890
2023-08-11T14:21:52.850Z,17778
2023-08-11T14:23:02.044Z,12326
2023-08-11T14:24:10.239Z,65415
2023-08-11T14:25:19.408Z,53700
2023-08-11T14:26:28.579Z,47719
2023-08-11T14:28:46.909Z,36901
2023-08-11T14:29:56.092Z,16422
2023-08-11T14:31:04.516Z,62485
2023-08-11T14:32:12.472Z,58824
2023-08-11T14:33:21.714Z,49442
2023-08-11T14:34:30.811Z,59823
2023-08-11T14:36:49.159Z,17333
2023-08-11T14:37:58.330Z,56791
2023-08-11T14:39:07.575Z,17460
2023-08-11T14:40:16.687Z,12763
2023-08-11T14:41:25.857Z,50835
2023-08-11T14:42:35.046Z,63028
2023-08-11T14:43:44.215Z,9272
2023-08-11T14:44:53.407Z,56696
2023-08-11T14:46:02.572Z,55205
2023-08-11T14:47:10.728Z,54184
2023-08-11T14:48:19.920Z,23018
2023-08-11T14:49:29.072Z,46807
2023-08-11T14:50:38.252Z,56665
2023-08-11T14:51:47.435Z,47541
2023-08-11T14:52:56.620Z,22124
2023-08-11T14:54:05.768Z,16644
2023-08-11T14:55:14.937Z,61608
2023-08-11T14:57:33.418Z,60805
2023-08-11T14:58:42.460Z,60298
2023-08-11T14:59:51.624Z,50388
2023-08-11T15:01:00.807Z,54502
2023-08-11T15:02:08.991Z,47635
2023-08-11T15:03:18.168Z,55289
2023-08-11T15:04:27.340Z,50095
2023-08-11T15:05:36.514Z,17901
2023-08-11T15:06:45.688Z,9231
2023-08-11T15:07:54.856Z,47932
2023-08-11T15:09:04.040Z,61660
2023-08-11T15:10:12.231Z,38921
2023-08-11T15:11:20.418Z,57731
2023-08-11T15:12:28.607Z,63461
2023-08-11T15:13:37.778Z,15234
2023-08-11T15:14:46.955Z,6990
2023-08-11T15:15:56.144Z,28110
2023-08-11T15:17:05.285Z,709
2023-08-11T15:18:14.504Z,14157
2023-08-11T15:19:23.648Z,4723
2023-08-11T15:20:32.820Z,6012
2023-08-11T15:21:42.016Z,57313
2023-08-11T15:22:51.176Z,665
2023-08-11T15:24:00.337Z,51874
2023-08-11T15:25:09.511Z,3180
2023-08-11T15:26:18.676Z,60343
2023-08-11T15:27:26.877Z,40936
2023-08-11T15:28:36.143Z,34384
2023-08-11T15:29:45.226Z,30211
2023-08-11T15:30:54.382Z,32025
2023-08-11T15:32:03.579Z,43179
2023-08-11T15:33:12.737Z,42731
2023-08-11T15:34:20.927Z,37287
2023-08-11T15:35:29.117Z,29771
2023-08-11T15:36:38.311Z,43692
2023-08-11T15:37:47.495Z,44749
2023-08-11T15:38:56.643Z,40883
2023-08-11T15:40:05.811Z,48806
2023-08-11T15:41:14.990Z,56712
2023-08-11T15:42:24.160Z,4567
2023-08-11T15:43:33.333Z,50114
2023-08-11T15:45:51.797Z,31568
2023-08-11T15:47:00.843Z,21810
2023-08-11T15:48:10.021Z,26530
2023-08-11T15:49:19.193Z,21670
2023-08-11T15:50:27.397Z,21508
2023-08-11T15:51:36.551Z,19038
2023-08-11T15:52:45.727Z,20307
2023-08-11T15:53:54.906Z,20956
2023-08-11T15:56:13.242Z,15617
2023-08-11T15:57:21.441Z,16822
2023-08-11T15:58:29.611Z,14207
2023-08-11T15:59:38.788Z,18359
2023-08-11T16:00:47.958Z,20277
2023-08-11T16:01:57.136Z,15457
2023-08-11T16:03:06.366Z,18126
2023-08-11T16:04:15.480Z,16983
2023-08-11T16:05:24.657Z,18599
2023-08-11T16:06:33.823Z,19855
2023-08-11T16:07:43.003Z,17610